createdAt,value
2017-06-17T00:00:09.592Z,90.3
2017-06-17T00:00:50.481Z,90.96
2017-06-17T00:01:31.367Z,90.77
2017-06-17T00:02:12.252Z,91.16
2017-06-17T00:02:53.138Z,90.96
2017-06-17T00:03:34.049Z,91.44
2017-06-17T00:04:14.926Z,91.16
2017-06-17T00:04:55.822Z,91.53
2017-06-17T00:05:36.718Z,91.06
2017-06-17T00:06:17.594Z,91.06
2017-06-17T00:06:58.478Z,90.77
2017-06-17T00:07:39.366Z,91.83
2017-06-17T00:08:20.254Z,91.35
2017-06-17T00:09:01.150Z,91.06
2017-06-17T00:09:42.030Z,91.16
2017-06-17T00:10:22.967Z,91.73
2017-06-17T00:11:03.859Z,91.63
2017-06-17T00:11:44.752Z,91.73
2017-06-17T00:12:25.650Z,91.35
2017-06-17T00:13:06.534Z,91.83
2017-06-17T00:13:47.426Z,91.73
2017-06-17T00:14:28.312Z,91.25
2017-06-17T00:15:09.216Z,91.35
2017-06-17T00:15:50.113Z,91.92
2017-06-17T00:16:31.000Z,91.83
2017-06-17T00:17:11.886Z,91.83
2017-06-17T00:17:52.779Z,91.53
2017-06-17T00:18:33.663Z,91.92
2017-06-17T00:19:14.543Z,91.63
2017-06-17T00:19:55.439Z,91.44
2017-06-17T00:20:36.325Z,91.63
2017-06-17T00:21:17.199Z,91.83
2017-06-17T00:21:58.077Z,91.63
2017-06-17T00:22:38.974Z,91.92
2017-06-17T00:23:19.889Z,91.83
2017-06-17T00:24:00.794Z,91.35
2017-06-17T00:24:41.683Z,90.77
2017-06-17T00:25:22.564Z,90.96
2017-06-17T00:26:03.463Z,90.96
2017-06-17T00:26:44.354Z,91.16
2017-06-17T00:27:25.236Z,91.83
2017-06-17T00:28:06.109Z,91.78
2017-06-17T00:28:47.012Z,91.83
2017-06-17T00:29:27.962Z,91.59
2017-06-17T00:30:08.829Z,92.21
2017-06-17T00:30:49.713Z,92.02
2017-06-17T00:31:30.616Z,92.35
2017-06-17T00:32:11.507Z,92.16
2017-06-17T00:32:52.402Z,92.16
2017-06-17T00:33:33.293Z,92.16
2017-06-17T00:34:14.184Z,92.16
2017-06-17T00:34:55.067Z,91.88
2017-06-17T00:35:35.967Z,92.74
2017-06-17T00:36:16.862Z,91.97
2017-06-17T00:36:57.788Z,92.35
2017-06-17T00:37:38.675Z,92.25
2017-06-17T00:38:19.565Z,92.21
2017-06-17T00:39:00.437Z,92.02
2017-06-17T00:39:41.337Z,91.97
2017-06-17T00:40:22.204Z,92.16
2017-06-17T00:41:03.088Z,92.4
2017-06-17T00:41:43.964Z,92.45
2017-06-17T00:42:24.857Z,92.93
2017-06-17T00:43:05.754Z,92.83
2017-06-17T00:43:46.642Z,92.83
2017-06-17T00:44:27.531Z,92.74
2017-06-17T00:45:08.419Z,93.02
2017-06-17T00:45:49.312Z,93.02
2017-06-17T00:46:30.205Z,93.31
2017-06-17T00:47:11.097Z,92.74
2017-06-17T00:47:51.995Z,93.5
2017-06-17T00:48:32.893Z,93.12
2017-06-17T00:49:13.786Z,93.12
2017-06-17T00:49:54.671Z,93.6
2017-06-17T00:50:35.552Z,93.31
2017-06-17T00:51:16.440Z,93.6
2017-06-17T00:51:57.327Z,93.31
2017-06-17T00:52:38.212Z,92.64
2017-06-17T00:53:19.106Z,93.02
2017-06-17T00:53:59.996Z,92.69
2017-06-17T00:54:40.880Z,92.54
2017-06-17T00:55:21.770Z,93.31
2017-06-17T00:56:02.663Z,93.21
2017-06-17T00:56:43.560Z,93.21
2017-06-17T00:57:24.479Z,93.4
2017-06-17T00:58:05.420Z,93.21
2017-06-17T00:58:46.314Z,92.64
2017-06-17T00:59:27.202Z,93.02
2017-06-17T01:00:08.095Z,92.45
2017-06-17T01:00:48.991Z,93.12
2017-06-17T01:01:29.876Z,93.31
2017-06-17T01:02:10.794Z,93.12
2017-06-17T01:02:51.675Z,93.12
2017-06-17T01:03:32.556Z,93.5
2017-06-17T01:04:13.442Z,93.12
2017-06-17T01:04:54.330Z,93.31
2017-06-17T01:05:35.208Z,93.21
2017-06-17T01:06:16.090Z,93.79
2017-06-17T01:06:56.980Z,93.98
2017-06-17T01:07:37.865Z,93.88
2017-06-17T01:08:18.752Z,94.26
2017-06-17T01:08:59.634Z,93.88
2017-06-17T01:09:40.516Z,94.07
2017-06-17T01:10:21.419Z,93.98
2017-06-17T01:11:02.296Z,93.79
2017-06-17T01:11:43.186Z,93.69
2017-06-17T01:12:24.102Z,94.07
2017-06-17T01:13:04.993Z,93.69
2017-06-17T01:13:45.885Z,93.02
2017-06-17T01:14:26.774Z,93.4
2017-06-17T01:15:07.658Z,93.6
2017-06-17T01:15:48.592Z,94.07
2017-06-17T01:16:29.469Z,93.79
2017-06-17T01:17:10.353Z,93.98
2017-06-17T01:17:51.248Z,93.98
2017-06-17T01:18:32.149Z,93.88
2017-06-17T01:19:13.042Z,93.79
2017-06-17T01:19:53.922Z,94.17
2017-06-17T01:20:34.818Z,93.6
2017-06-17T01:21:15.706Z,94.07
2017-06-17T01:21:56.599Z,94.07
2017-06-17T01:22:37.485Z,93.79
2017-06-17T01:23:18.363Z,93.69
2017-06-17T01:23:59.253Z,94.17
2017-06-17T01:24:40.140Z,93.79
2017-06-17T01:25:21.044Z,93.98
2017-06-17T01:26:01.930Z,93.98
2017-06-17T01:26:42.826Z,93.79
2017-06-17T01:27:23.700Z,93.5
2017-06-17T01:28:04.597Z,93.79
2017-06-17T01:28:45.491Z,93.88
2017-06-17T01:29:26.367Z,93.79
2017-06-17T01:30:07.256Z,94.17
2017-06-17T01:30:48.153Z,94.26
2017-06-17T01:31:29.036Z,93.98
2017-06-17T01:32:09.925Z,93.79
2017-06-17T01:32:50.811Z,94.36
2017-06-17T01:33:31.698Z,94.65
2017-06-17T01:34:12.583Z,94.55
2017-06-17T01:34:53.484Z,94.17
2017-06-17T01:35:34.366Z,94.36
2017-06-17T01:36:15.250Z,94.46
2017-06-17T01:36:56.135Z,94.46
2017-06-17T01:37:37.023Z,94.46
2017-06-17T01:38:17.919Z,94.17
2017-06-17T01:38:58.793Z,94.36
2017-06-17T01:39:39.661Z,93.88
2017-06-17T01:40:20.533Z,94.17
2017-06-17T01:41:01.413Z,93.69
2017-06-17T01:41:42.296Z,93.79
2017-06-17T01:42:23.181Z,94.07
2017-06-17T01:43:04.066Z,94.07
2017-06-17T01:43:44.958Z,93.98
2017-06-17T01:44:25.854Z,93.69
2017-06-17T01:45:06.734Z,93.79
2017-06-17T01:45:47.624Z,94.17
2017-06-17T01:46:28.521Z,93.88
2017-06-17T01:47:09.410Z,93.6
2017-06-17T01:47:50.303Z,93.4
2017-06-17T01:48:31.207Z,93.31
2017-06-17T01:49:12.093Z,93.31
2017-06-17T01:49:52.974Z,93.5
2017-06-17T01:50:33.863Z,93.02
2017-06-17T01:51:14.751Z,93.02
2017-06-17T01:51:55.634Z,93.5
2017-06-17T01:52:36.630Z,93.21
2017-06-17T01:53:17.530Z,93.4
2017-06-17T01:53:58.418Z,92.93
2017-06-17T01:54:39.308Z,93.5
2017-06-17T01:55:20.228Z,93.31
2017-06-17T01:56:01.122Z,93.21
2017-06-17T01:56:42.021Z,93.12
2017-06-17T01:57:22.894Z,93.4
2017-06-17T01:58:03.773Z,93.6
2017-06-17T01:58:44.658Z,93.6
2017-06-17T01:59:25.551Z,93.6
2017-06-17T02:01:24.329Z,93.12
2017-06-17T02:02:05.210Z,93.6
2017-06-17T02:02:46.099Z,93.4
2017-06-17T02:03:26.994Z,93.88
2017-06-17T02:04:07.874Z,93.69
2017-06-17T02:04:48.762Z,94.07
2017-06-17T02:05:29.681Z,94.07
2017-06-17T02:06:10.579Z,93.79
2017-06-17T02:06:51.468Z,93.69
2017-06-17T02:07:32.371Z,93.98
2017-06-17T02:08:13.235Z,93.98
2017-06-17T02:08:54.128Z,94.36
2017-06-17T02:09:35.031Z,93.88
2017-06-17T02:10:15.914Z,93.4
2017-06-17T02:10:56.783Z,93.4
2017-06-17T02:11:37.681Z,93.12
2017-06-17T02:12:18.569Z,93.69
2017-06-17T02:12:59.458Z,93.6
2017-06-17T02:13:40.359Z,93.31
2017-06-17T02:14:21.240Z,93.21
2017-06-17T02:15:02.126Z,93.4
2017-06-17T02:15:43.056Z,93.12
2017-06-17T02:16:23.938Z,93.02
2017-06-17T02:17:04.824Z,93.31
2017-06-17T02:17:45.708Z,93.31
2017-06-17T02:18:26.594Z,93.6
2017-06-17T02:19:07.487Z,93.12
2017-06-17T02:19:48.385Z,93.21
2017-06-17T02:20:29.307Z,93.31
2017-06-17T02:21:10.192Z,93.79
2017-06-17T02:21:51.091Z,94.36
2017-06-17T02:22:31.999Z,94.17
2017-06-17T02:23:12.853Z,93.79
2017-06-17T02:23:53.744Z,93.79
2017-06-17T02:24:34.622Z,94.17
2017-06-17T02:25:15.504Z,93.79
2017-06-17T02:25:56.382Z,94.07
2017-06-17T02:26:37.258Z,93.88
2017-06-17T02:27:18.135Z,94.07
2017-06-17T02:27:59.020Z,94.07
2017-06-17T02:28:39.930Z,93.6
2017-06-17T02:29:20.835Z,93.79
2017-06-17T02:30:01.714Z,93.88
2017-06-17T02:30:42.593Z,93.98
2017-06-17T02:31:23.488Z,93.6
2017-06-17T02:32:04.370Z,93.79
2017-06-17T02:32:45.263Z,93.88
2017-06-17T02:33:26.133Z,93.6
2017-06-17T02:34:07.017Z,93.31
2017-06-17T02:34:47.899Z,93.6
2017-06-17T02:35:28.849Z,93.5
2017-06-17T02:36:09.740Z,93.31
2017-06-17T02:36:50.615Z,93.31
2017-06-17T02:37:31.492Z,93.21
2017-06-17T02:38:12.383Z,93.6
2017-06-17T02:38:53.271Z,93.5
2017-06-17T02:39:34.154Z,94.07
2017-06-17T02:40:15.059Z,93.98
2017-06-17T02:40:55.950Z,93.98
2017-06-17T02:41:36.835Z,94.26
2017-06-17T02:42:17.715Z,93.88
2017-06-17T02:42:58.594Z,94.26
2017-06-17T02:43:39.499Z,93.79
2017-06-17T02:44:20.376Z,93.6
2017-06-17T02:45:01.252Z,93.98
2017-06-17T02:45:42.126Z,93.21
2017-06-17T02:46:23.025Z,93.69
2017-06-17T02:47:03.891Z,93.88
2017-06-17T02:47:44.772Z,93.98
2017-06-17T02:48:25.648Z,93.31
2017-06-17T02:49:06.546Z,93.21
2017-06-17T02:49:47.430Z,92.25
2017-06-17T02:50:28.311Z,91.97
2017-06-17T02:51:09.237Z,92.35
2017-06-17T02:51:50.110Z,91.97
2017-06-17T02:52:31.080Z,91.78
2017-06-17T02:53:11.965Z,91.78
2017-06-17T02:53:52.885Z,92.35
2017-06-17T02:54:33.756Z,92.25
2017-06-17T02:55:14.632Z,92.25
2017-06-17T02:55:55.520Z,92.25
2017-06-17T02:56:36.418Z,92.16
2017-06-17T02:57:17.294Z,92.07
2017-06-17T02:57:58.192Z,92.16
2017-06-17T02:58:39.063Z,92.35
2017-06-17T02:59:19.948Z,92.64
2017-06-17T03:00:00.856Z,92.25
2017-06-17T03:00:41.733Z,92.07
2017-06-17T03:01:22.624Z,91.39
2017-06-17T03:02:03.504Z,91.59
2017-06-17T03:02:44.433Z,91.59
2017-06-17T03:03:25.325Z,91.39
2017-06-17T03:04:06.218Z,91.49
2017-06-17T03:04:47.118Z,91.88
2017-06-17T03:05:28.001Z,91.68
2017-06-17T03:06:08.880Z,91.3
2017-06-17T03:06:49.759Z,91.59
2017-06-17T03:07:30.655Z,91.68
2017-06-17T03:08:11.553Z,91.78
2017-06-17T03:08:52.444Z,91.97
2017-06-17T03:09:33.333Z,91.02
2017-06-17T03:10:14.213Z,90.63
2017-06-17T03:10:55.103Z,90.82
2017-06-17T03:11:36.007Z,91.11
2017-06-17T03:12:16.890Z,91.3
2017-06-17T03:12:57.776Z,90.82
2017-06-17T03:13:38.662Z,91.02
2017-06-17T03:14:19.557Z,90.92
2017-06-17T03:15:00.447Z,91.11
2017-06-17T03:15:41.332Z,90.82
2017-06-17T03:16:22.223Z,90.73
2017-06-17T03:17:03.115Z,90.92
2017-06-17T03:17:43.995Z,91.49
2017-06-17T03:18:24.891Z,90.92
2017-06-17T03:19:05.770Z,90.82
2017-06-17T03:19:46.665Z,91.49
2017-06-17T03:20:27.564Z,91.2
2017-06-17T03:21:08.461Z,91.39
2017-06-17T03:21:49.351Z,91.59
2017-06-17T03:22:30.264Z,91.78
2017-06-17T03:23:11.152Z,91.59
2017-06-17T03:23:52.042Z,91.02
2017-06-17T03:24:32.938Z,91.3
2017-06-17T03:25:13.829Z,91.02
2017-06-17T03:25:54.722Z,91.68
2017-06-17T03:26:35.600Z,91.49
2017-06-17T03:27:16.488Z,91.78
2017-06-17T03:27:57.377Z,91.78
2017-06-17T03:28:38.268Z,91.49
2017-06-17T03:29:19.174Z,91.2
2017-06-17T03:30:00.050Z,91.11
2017-06-17T03:30:40.989Z,91.39
2017-06-17T03:31:21.871Z,91.11
2017-06-17T03:32:02.750Z,91.49
2017-06-17T03:32:43.633Z,91.02
2017-06-17T03:33:24.524Z,90.73
2017-06-17T03:34:05.409Z,90.73
2017-06-17T03:34:46.287Z,90.82
2017-06-17T03:35:27.176Z,90.34
2017-06-17T03:36:08.082Z,90.73
2017-06-17T03:36:48.970Z,90.25
2017-06-17T03:37:29.892Z,90.06
2017-06-17T03:38:10.748Z,90.16
2017-06-17T03:38:51.635Z,90.82
2017-06-17T03:39:32.530Z,91.02
2017-06-17T03:40:13.422Z,90.53
2017-06-17T03:40:54.289Z,90.73
2017-06-17T03:41:35.177Z,91.11
2017-06-17T03:42:16.114Z,90.82
2017-06-17T03:42:57.043Z,91.39
2017-06-17T03:43:37.921Z,91.11
2017-06-17T03:44:18.810Z,91.3
2017-06-17T03:44:59.704Z,91.02
2017-06-17T03:45:40.604Z,91.3
2017-06-17T03:46:21.489Z,91.02
2017-06-17T03:47:02.376Z,90.82
2017-06-17T03:47:43.258Z,90.92
2017-06-17T03:48:24.131Z,91.02
2017-06-17T03:49:05.000Z,91.39
2017-06-17T03:49:45.877Z,90.73
2017-06-17T03:50:26.763Z,90.92
2017-06-17T03:51:07.675Z,90.73
2017-06-17T03:51:48.573Z,90.63
2017-06-17T03:52:29.447Z,90.92
2017-06-17T03:53:10.344Z,91.2
2017-06-17T03:53:51.230Z,90.92
2017-06-17T03:54:32.111Z,90.92
2017-06-17T03:55:13.001Z,90.82
2017-06-17T03:55:53.874Z,90.73
2017-06-17T03:56:34.764Z,91.02
2017-06-17T03:57:15.652Z,90.92
2017-06-17T03:57:56.543Z,91.49
2017-06-17T03:58:37.428Z,91.49
2017-06-17T03:59:18.319Z,91.68
2017-06-17T03:59:59.212Z,91.49
2017-06-17T04:00:40.102Z,91.68
2017-06-17T04:01:20.998Z,91.11
2017-06-17T04:02:01.947Z,90.92
2017-06-17T04:02:42.845Z,90.73
2017-06-17T04:03:23.741Z,90.73
2017-06-17T04:04:04.658Z,91.02
2017-06-17T04:04:45.545Z,91.02
2017-06-17T04:05:26.430Z,91.3
2017-06-17T04:06:07.337Z,91.3
2017-06-17T04:06:48.224Z,91.39
2017-06-17T04:07:29.112Z,91.49
2017-06-17T04:08:09.994Z,91.39
2017-06-17T04:08:50.875Z,91.49
2017-06-17T04:09:31.755Z,91.11
2017-06-17T04:10:12.652Z,91.3
2017-06-17T04:10:53.587Z,91.59
2017-06-17T04:11:34.431Z,90.82
2017-06-17T04:12:15.300Z,91.02
2017-06-17T04:12:56.208Z,91.02
2017-06-17T04:13:37.087Z,90.63
2017-06-17T04:14:17.975Z,90.73
2017-06-17T04:14:58.859Z,90.82
2017-06-17T04:15:39.743Z,90.92
2017-06-17T04:16:20.637Z,90.92
2017-06-17T04:17:01.509Z,91.02
2017-06-17T04:17:42.397Z,91.02
2017-06-17T04:18:23.286Z,90.73
2017-06-17T04:19:04.175Z,91.02
2017-06-17T04:19:45.047Z,90.16
2017-06-17T04:20:25.949Z,90.06
2017-06-17T04:21:06.839Z,90.25
2017-06-17T04:21:47.738Z,90.92
2017-06-17T04:22:28.647Z,90.16
2017-06-17T04:23:09.522Z,90.2
2017-06-17T04:23:50.413Z,89.81
2017-06-17T04:24:31.303Z,89.91
2017-06-17T04:25:12.193Z,89.72
2017-06-17T04:25:53.067Z,89.81
2017-06-17T04:26:33.946Z,89.77
2017-06-17T04:27:14.853Z,89.72
2017-06-17T04:27:55.738Z,89.62
2017-06-17T04:28:36.622Z,89.53
2017-06-17T04:29:17.564Z,89.05
2017-06-17T04:29:58.470Z,88.86
2017-06-17T04:30:39.360Z,89.05
2017-06-17T04:31:20.248Z,89.34
2017-06-17T04:32:01.151Z,88.95
2017-06-17T04:32:42.037Z,88.95
2017-06-17T04:33:22.924Z,89.05
2017-06-17T04:34:03.828Z,89.05
2017-06-17T04:34:44.711Z,89.05
2017-06-17T04:35:25.604Z,89.15
2017-06-17T04:36:06.457Z,88.91
2017-06-17T04:36:47.339Z,89.48
2017-06-17T04:37:28.230Z,89.53
2017-06-17T04:38:09.125Z,88.95
2017-06-17T04:38:50.015Z,89.43
2017-06-17T04:39:30.901Z,89.05
2017-06-17T04:40:11.795Z,89.24
2017-06-17T04:40:52.692Z,88.86
2017-06-17T04:41:33.586Z,89.1
2017-06-17T04:42:14.481Z,89.77
2017-06-17T04:42:55.357Z,89.72
2017-06-17T04:43:36.256Z,89.53
2017-06-17T04:44:17.134Z,89.77
2017-06-17T04:44:58.016Z,89.72
2017-06-17T04:45:38.911Z,89.58
2017-06-17T04:46:19.808Z,89.48
2017-06-17T04:47:00.690Z,89.48
2017-06-17T04:47:41.603Z,90.1
2017-06-17T04:48:22.503Z,89.05
2017-06-17T04:49:03.393Z,89.53
2017-06-17T04:49:44.292Z,89.81
2017-06-17T04:50:25.187Z,89.72
2017-06-17T04:51:06.093Z,88.86
2017-06-17T04:51:46.976Z,88.95
2017-06-17T04:52:27.852Z,89.05
2017-06-17T04:53:08.729Z,89.15
2017-06-17T04:53:49.684Z,88.67
2017-06-17T04:54:30.579Z,88.86
2017-06-17T04:55:11.464Z,88.57
2017-06-17T04:55:52.393Z,89.43
2017-06-17T04:56:33.311Z,89.72
2017-06-17T04:57:14.239Z,89.34
2017-06-17T04:57:55.121Z,89.91
2017-06-17T04:59:28.373Z,89.62
2017-06-17T05:00:09.322Z,88.95
2017-06-17T05:00:50.216Z,89.34
2017-06-17T05:01:31.098Z,89.15
2017-06-17T05:02:11.980Z,88.67
2017-06-17T05:02:52.882Z,89.05
2017-06-17T05:03:33.760Z,88.67
2017-06-17T05:04:14.624Z,88.95
2017-06-17T05:04:55.530Z,88.86
2017-06-17T05:05:36.418Z,88.67
2017-06-17T05:06:17.299Z,88.67
2017-06-17T05:06:58.181Z,88.86
2017-06-17T05:07:39.069Z,88.38
2017-06-17T05:08:19.962Z,88.38
2017-06-17T05:09:00.862Z,88.76
2017-06-17T05:09:41.756Z,88.67
2017-06-17T05:10:22.643Z,88.95
2017-06-17T05:11:03.517Z,88.57
2017-06-17T05:11:44.402Z,88.29
2017-06-17T05:12:25.305Z,89.24
2017-06-17T05:13:06.179Z,88.95
2017-06-17T05:13:47.049Z,88.95
2017-06-17T05:14:27.959Z,88.95
2017-06-17T05:15:08.960Z,88.95
2017-06-17T05:15:50.023Z,88.86
2017-06-17T05:16:30.890Z,89.15
2017-06-17T05:17:11.765Z,88.86
2017-06-17T05:17:52.660Z,88.86
2017-06-17T05:18:33.554Z,89.43
2017-06-17T05:19:14.543Z,89.34
2017-06-17T05:19:55.449Z,89.72
2017-06-17T05:20:36.333Z,89.91
2017-06-17T05:21:17.191Z,89.72
2017-06-17T05:21:58.069Z,89.15
2017-06-17T05:22:38.960Z,88.57
2017-06-17T05:23:19.848Z,89.05
2017-06-17T05:24:00.739Z,89.15
2017-06-17T05:24:41.637Z,89.24
2017-06-17T05:25:22.524Z,89.81
2017-06-17T05:27:21.319Z,88.95
2017-06-17T05:28:02.181Z,89.05
2017-06-17T05:28:43.080Z,88.95
2017-06-17T05:29:23.979Z,88.86
2017-06-17T05:30:04.858Z,88.57
2017-06-17T05:30:45.738Z,88.67
2017-06-17T05:31:26.632Z,88.38
2017-06-17T05:32:08.151Z,88.67
2017-06-17T05:32:49.063Z,88.48
2017-06-17T05:33:29.963Z,87.81
2017-06-17T05:34:10.860Z,88.48
2017-06-17T05:34:51.752Z,88.86
2017-06-17T05:35:32.641Z,87.43
2017-06-17T05:36:13.520Z,87.81
2017-06-17T05:36:54.425Z,87.43
2017-06-17T05:37:35.321Z,87.23
2017-06-17T05:38:16.211Z,87.23
2017-06-17T05:38:57.135Z,86.7
2017-06-17T05:39:37.996Z,86.99
2017-06-17T05:40:18.869Z,85.46
2017-06-17T05:40:59.745Z,85.08
2017-06-17T05:41:40.657Z,86.32
2017-06-17T05:42:21.540Z,86.13
2017-06-17T05:43:02.434Z,86.61
2017-06-17T05:43:43.324Z,86.22
2017-06-17T05:44:24.216Z,87.23
2017-06-17T05:45:05.084Z,87.08
2017-06-17T05:45:46.032Z,86.7
2017-06-17T05:46:26.879Z,87.08
2017-06-17T05:47:07.751Z,86.8
2017-06-17T05:47:48.633Z,87.08
2017-06-17T05:49:16.699Z,86.7
2017-06-17T05:49:57.607Z,86.9
2017-06-17T05:50:38.487Z,86.22
2017-06-17T05:51:19.361Z,86.51
2017-06-17T05:52:00.240Z,86.51
2017-06-17T05:52:41.139Z,86.22
2017-06-17T05:53:22.077Z,85.75
2017-06-17T05:54:02.970Z,85.46
2017-06-17T05:54:43.836Z,85.94
2017-06-17T05:55:24.706Z,85.75
2017-06-17T05:56:05.577Z,85.65
2017-06-17T05:56:46.472Z,85.75
2017-06-17T05:57:27.376Z,85.84
2017-06-17T05:58:08.246Z,85.84
2017-06-17T05:58:49.119Z,85.75
2017-06-17T05:59:29.999Z,85.65
2017-06-17T06:00:10.905Z,86.32
2017-06-17T06:00:51.775Z,86.41
2017-06-17T06:01:32.667Z,85.75
2017-06-17T06:02:13.555Z,85.17
2017-06-17T06:02:54.448Z,85.17
2017-06-17T06:03:35.317Z,84.79
2017-06-17T06:04:16.204Z,85.27
2017-06-17T06:04:57.106Z,84.88
2017-06-17T06:05:37.984Z,84.59
2017-06-17T06:06:18.880Z,84.5
2017-06-17T06:06:59.760Z,84.69
2017-06-17T06:07:40.692Z,84.31
2017-06-17T06:08:21.585Z,84.59
2017-06-17T06:09:02.462Z,84.88
2017-06-17T06:09:43.344Z,85.08
2017-06-17T06:10:24.239Z,85.36
2017-06-17T06:11:05.134Z,85.36
2017-06-17T06:11:46.019Z,85.36
2017-06-17T06:12:26.904Z,85.55
2017-06-17T06:13:07.813Z,85.17
2017-06-17T06:13:48.683Z,85.36
2017-06-17T06:14:29.556Z,84.59
2017-06-17T06:15:10.481Z,84.69
2017-06-17T06:15:51.348Z,85.55
2017-06-17T06:16:32.225Z,85.27
2017-06-17T06:17:13.114Z,85.36
2017-06-17T06:17:54.023Z,85.36
2017-06-17T06:18:34.896Z,85.17
2017-06-17T06:19:15.787Z,86.13
2017-06-17T06:19:56.681Z,86.41
2017-06-17T06:20:37.566Z,86.32
2017-06-17T06:21:18.430Z,86.22
2017-06-17T06:21:59.295Z,86.32
2017-06-17T06:22:40.232Z,86.61
2017-06-17T06:23:21.095Z,85.94
2017-06-17T06:24:01.959Z,85.55
2017-06-17T06:24:42.857Z,86.13
2017-06-17T06:25:23.750Z,85.75
2017-06-17T06:26:04.627Z,85.75
2017-06-17T06:26:45.505Z,85.65
2017-06-17T06:27:26.384Z,85.27
2017-06-17T06:28:07.301Z,86.04
2017-06-17T06:28:48.167Z,85.55
2017-06-17T06:29:29.087Z,85.55
2017-06-17T06:30:09.967Z,86.22
2017-06-17T06:30:50.854Z,86.22
2017-06-17T06:31:31.749Z,85.55
2017-06-17T06:32:12.631Z,85.65
2017-06-17T06:32:53.530Z,86.04
2017-06-17T06:33:34.421Z,86.41
2017-06-17T06:34:15.337Z,85.55
2017-06-17T06:34:56.197Z,85.75
2017-06-17T06:35:37.092Z,85.55
2017-06-17T06:36:18.005Z,85.17
2017-06-17T06:36:58.870Z,84.5
2017-06-17T06:37:39.736Z,84.69
2017-06-17T06:38:20.612Z,84.88
2017-06-17T06:39:01.569Z,84.41
2017-06-17T06:39:42.402Z,84.31
2017-06-17T06:40:23.296Z,84.31
2017-06-17T06:41:04.178Z,83.93
2017-06-17T06:41:45.061Z,84.22
2017-06-17T06:42:25.944Z,83.93
2017-06-17T06:43:06.823Z,83.73
2017-06-17T06:43:47.717Z,84.12
2017-06-17T06:44:28.614Z,83.64
2017-06-17T06:45:09.480Z,84.12
2017-06-17T06:45:50.398Z,84.5
2017-06-17T06:46:31.292Z,84.5
2017-06-17T06:47:12.180Z,84.79
2017-06-17T06:47:53.068Z,84.79
2017-06-17T06:48:33.973Z,84.59
2017-06-17T06:49:14.841Z,84.79
2017-06-17T06:49:55.803Z,84.98
2017-06-17T06:50:36.710Z,84.98
2017-06-17T06:51:17.611Z,83.83
2017-06-17T06:51:58.481Z,82.97
2017-06-17T06:52:39.387Z,82.59
2017-06-17T06:53:20.280Z,82.59
2017-06-17T06:54:01.164Z,82.59
2017-06-17T06:54:42.039Z,81.44
2017-06-17T06:55:22.959Z,81.73
2017-06-17T06:56:03.841Z,81.92
2017-06-17T06:56:44.810Z,81.73
2017-06-17T06:57:25.695Z,81.29
2017-06-17T06:58:06.582Z,79.62
2017-06-17T06:58:47.481Z,80.1
2017-06-17T06:59:28.369Z,80.04
2017-06-17T07:00:09.274Z,79.28
2017-06-17T07:00:50.142Z,78.8
2017-06-17T07:01:31.043Z,78.61
2017-06-17T07:02:11.928Z,78.8
2017-06-17T07:02:52.817Z,78.51
2017-06-17T07:03:33.732Z,78.61
2017-06-17T07:04:14.626Z,77.94
2017-06-17T07:04:55.580Z,78.13
2017-06-17T07:05:36.468Z,78.32
2017-06-17T07:06:17.373Z,77.94
2017-06-17T07:06:58.245Z,78.89
2017-06-17T07:07:39.142Z,78.99
2017-06-17T07:08:20.035Z,79.08
2017-06-17T07:09:00.937Z,78.8
2017-06-17T07:09:41.838Z,78.36
2017-06-17T07:10:22.727Z,78.07
2017-06-17T07:11:03.605Z,77.97
2017-06-17T07:11:44.493Z,79.08
2017-06-17T07:12:25.386Z,79.57
2017-06-17T07:13:06.277Z,79.66
2017-06-17T07:13:47.186Z,79.85
2017-06-17T07:14:28.075Z,79.75
2017-06-17T07:15:08.987Z,79.47
2017-06-17T07:15:49.876Z,79.57
2017-06-17T07:16:30.767Z,79.08
2017-06-17T07:17:11.652Z,79.75
2017-06-17T07:17:52.552Z,79.57
2017-06-17T07:18:33.444Z,78.8
2017-06-17T07:19:14.331Z,78.61
2017-06-17T07:19:55.222Z,77.94
2017-06-17T07:20:36.124Z,77.94
2017-06-17T07:21:17.027Z,78.22
2017-06-17T07:21:57.917Z,78.22
2017-06-17T07:22:38.801Z,77.55
2017-06-17T07:23:19.692Z,77.5
2017-06-17T07:24:00.716Z,76.15
2017-06-17T07:24:41.555Z,75.68
2017-06-17T07:25:22.443Z,74.91
2017-06-17T07:26:03.335Z,74.52
2017-06-17T07:26:44.213Z,73.19
2017-06-17T07:27:25.101Z,73.76
2017-06-17T07:28:05.984Z,73.09
2017-06-17T07:28:46.891Z,72.99
2017-06-17T07:29:27.790Z,71.78
2017-06-17T07:30:08.713Z,70.64
2017-06-17T07:30:49.607Z,71.31
2017-06-17T07:31:30.496Z,71.59
2017-06-17T07:32:11.406Z,71.21
2017-06-17T07:32:52.290Z,71.11
2017-06-17T07:33:33.187Z,71.31
2017-06-17T07:34:14.076Z,70.92
2017-06-17T07:34:54.972Z,70.76
2017-06-17T07:35:35.867Z,70.29
2017-06-17T07:36:16.759Z,70.64
2017-06-17T07:36:57.672Z,71.21
2017-06-17T07:37:38.573Z,71.11
2017-06-17T07:38:19.462Z,71.34
2017-06-17T07:39:00.356Z,70.92
2017-06-17T07:39:41.265Z,70.57
2017-06-17T07:40:22.148Z,70.64
2017-06-17T07:41:03.042Z,71.69
2017-06-17T07:41:43.944Z,71.78
2017-06-17T07:42:24.850Z,71.5
2017-06-17T07:43:05.737Z,72.07
2017-06-17T07:43:46.632Z,72.99
2017-06-17T07:44:27.590Z,72.99
2017-06-17T07:45:08.434Z,73.13
2017-06-17T07:45:49.317Z,71.88
2017-06-17T07:46:30.232Z,70.9
2017-06-17T07:47:11.126Z,69.81
2017-06-17T07:47:52.021Z,69.33
2017-06-17T07:48:32.923Z,69.84
2017-06-17T07:49:13.802Z,68.69
2017-06-17T07:49:54.750Z,68.5
2017-06-17T07:50:35.649Z,68.79
2017-06-17T07:51:16.547Z,68.21
2017-06-17T07:51:57.510Z,68.05
2017-06-17T07:52:38.405Z,66.46
2017-06-17T07:53:19.327Z,66.42
2017-06-17T07:54:00.218Z,65.59
2017-06-17T07:54:41.119Z,65.65
2017-06-17T07:55:22.007Z,65.94
2017-06-17T07:56:02.893Z,66.23
2017-06-17T07:57:41.402Z,66.61
2017-06-17T07:58:22.307Z,66.23
2017-06-17T07:59:03.208Z,66.33
2017-06-17T07:59:44.103Z,66.33
2017-06-17T08:00:25.012Z,66.03
2017-06-17T08:01:05.923Z,66.23
2017-06-17T08:01:46.825Z,67.44
2017-06-17T08:02:27.722Z,67.47
2017-06-17T08:03:08.634Z,67.38
2017-06-17T08:03:49.586Z,66.64
2017-06-17T08:04:30.472Z,65.3
2017-06-17T08:05:11.371Z,65.11
2017-06-17T08:05:52.284Z,66.8
2017-06-17T08:06:33.195Z,67.54
2017-06-17T08:07:14.094Z,68.4
2017-06-17T08:07:55.032Z,68.69
2017-06-17T08:08:35.886Z,69.74
2017-06-17T08:09:16.767Z,70.09
2017-06-17T08:09:57.670Z,71.15
2017-06-17T08:10:38.566Z,71.53
2017-06-17T08:11:19.483Z,71.92
2017-06-17T08:12:00.385Z,71.25
2017-06-17T08:12:41.291Z,71.09
2017-06-17T08:13:22.189Z,72.01
2017-06-17T08:14:03.086Z,72.64
2017-06-17T08:14:43.996Z,72.94
2017-06-17T08:15:24.890Z,72.94
2017-06-17T08:16:05.781Z,72.3
2017-06-17T08:16:46.677Z,72.49
2017-06-17T08:17:27.578Z,72.84
2017-06-17T08:18:08.502Z,72.84
2017-06-17T08:18:49.401Z,73.41
2017-06-17T08:19:30.309Z,72.88
2017-06-17T08:20:11.216Z,72.36
2017-06-17T08:20:52.094Z,73.32
2017-06-17T08:21:32.981Z,74.47
2017-06-17T08:22:13.878Z,73.45
2017-06-17T08:22:54.775Z,73.03
2017-06-17T08:23:35.686Z,72.49
2017-06-17T08:24:16.588Z,72.94
2017-06-17T08:24:57.474Z,73.41
2017-06-17T08:25:38.375Z,73.7
2017-06-17T08:26:19.263Z,73.41
2017-06-17T08:27:00.150Z,73.51
2017-06-17T08:27:41.049Z,73.03
2017-06-17T08:28:21.954Z,73.03
2017-06-17T08:29:02.843Z,72.45
2017-06-17T08:29:43.740Z,72.27
2017-06-17T08:30:24.638Z,71.98
2017-06-17T08:31:05.531Z,71.69
2017-06-17T08:31:46.427Z,71.44
2017-06-17T08:32:27.314Z,70.76
2017-06-17T08:33:08.197Z,70.38
2017-06-17T08:33:49.085Z,70.99
2017-06-17T08:34:29.972Z,69.42
2017-06-17T08:35:10.880Z,69.71
2017-06-17T08:35:51.769Z,69.71
2017-06-17T08:36:32.670Z,68.88
2017-06-17T08:37:13.659Z,68.91
2017-06-17T08:37:54.550Z,67.51
2017-06-17T08:38:35.446Z,66.36
2017-06-17T08:39:16.340Z,67.16
2017-06-17T08:39:57.235Z,67.57
2017-06-17T08:40:38.126Z,66.84
2017-06-17T08:41:19.026Z,66.33
2017-06-17T08:41:59.916Z,66.26
2017-06-17T08:42:40.862Z,66.36
2017-06-17T08:43:21.769Z,65.84
2017-06-17T08:44:02.669Z,66.16
2017-06-17T08:44:43.559Z,65.59
2017-06-17T08:45:24.462Z,65.97
2017-06-17T08:46:05.368Z,66.23
2017-06-17T08:46:46.271Z,66.46
2017-06-17T08:47:27.162Z,65.59
2017-06-17T08:48:08.084Z,65.27
2017-06-17T08:48:48.985Z,66.03
2017-06-17T08:49:29.881Z,66.23
2017-06-17T08:50:10.810Z,66.8
2017-06-17T08:50:51.680Z,66.26
2017-06-17T08:51:32.565Z,65.2
2017-06-17T08:52:13.450Z,65.49
2017-06-17T08:52:54.335Z,65.94
2017-06-17T08:53:35.224Z,66.42